sensor_id;sensor_type;location;lat;lon;timestamp;temperature;humidity
4090;DHT22;2059;48.538;12.146;2024-03-17T00:01:06;8.60;99.90
4090;DHT22;2059;48.538;12.146;2024-03-17T00:06:08;8.60;99.90
4090;DHT22;2059;48.538;12.146;2024-03-17T00:11:11;8.70;99.90
4090;DHT22;2059;48.538;12.146;2024-03-17T00:16:13;8.70;99.90
4090;DHT22;2059;48.538;12.146;2024-03-17T00:21:19;8.60;99.90
4090;DHT22;2059;48.538;12.146;2024-03-17T00:26:22;8.80;99.90
4090;DHT22;2059;48.538;12.146;2024-03-17T00:31:24;8.70;99.90
4090;DHT22;2059;48.538;12.146;2024-03-17T00:36:26;8.80;99.90
4090;DHT22;2059;48.538;12.146;2024-03-17T00:41:29;8.60;99.90
4090;DHT22;2059;48.538;12.146;2024-03-17T00:46:31;8.70;99.90
4090;DHT22;2059;48.538;12.146;2024-03-17T00:51:33;8.90;99.90
4090;DHT22;2059;48.538;12.146;2024-03-17T00:56:36;8.80;99.90
4090;DHT22;2059;48.538;12.146;2024-03-17T01:01:38;8.80;99.90
4090;DHT22;2059;48.538;12.146;2024-03-17T01:06:40;8.80;99.90
4090;DHT22;2059;48.538;12.146;2024-03-17T01:11:43;8.80;99.90
4090;DHT22;2059;48.538;12.146;2024-03-17T01:16:44;8.70;99.90
4090;DHT22;2059;48.538;12.146;2024-03-17T01:21:46;8.70;99.90
4090;DHT22;2059;48.538;12.146;2024-03-17T01:26:49;8.60;99.90
4090;DHT22;2059;48.538;12.146;2024-03-17T01:31:51;8.70;99.90
4090;DHT22;2059;48.538;12.146;2024-03-17T01:36:53;8.70;99.90
4090;DHT22;2059;48.538;12.146;2024-03-17T01:41:57;8.60;99.90
4090;DHT22;2059;48.538;12.146;2024-03-17T01:46:59;8.70;99.90
4090;DHT22;2059;48.538;12.146;2024-03-17T01:52:03;8.70;99.90
4090;DHT22;2059;48.538;12.146;2024-03-17T01:57:08;8.60;99.90
4090;DHT22;2059;48.538;12.146;2024-03-17T02:02:09;8.40;99.90
4090;DHT22;2059;48.538;12.146;2024-03-17T02:07:11;8.60;99.90
4090;DHT22;2059;48.538;12.146;2024-03-17T02:12:14;8.50;99.90
4090;DHT22;2059;48.538;12.146;2024-03-17T02:17:16;8.60;99.90
4090;DHT22;2059;48.538;12.146;2024-03-17T02:22:19;8.70;99.90
4090;DHT22;2059;48.538;12.146;2024-03-17T02:27:21;8.70;99.90
4090;DHT22;2059;48.538;12.146;2024-03-17T02:32:23;8.40;99.90
4090;DHT22;2059;48.538;12.146;2024-03-17T02:37:28;8.40;99.90
4090;DHT22;2059;48.538;12.146;2024-03-17T02:42:30;8.30;99.90
4090;DHT22;2059;48.538;12.146;2024-03-17T02:47:32;8.60;99.90
4090;DHT22;2059;48.538;12.146;2024-03-17T02:52:35;8.30;99.90
4090;DHT22;2059;48.538;12.146;2024-03-17T02:57:37;8.20;99.90
4090;DHT22;2059;48.538;12.146;2024-03-17T03:02:39;8.30;99.90
4090;DHT22;2059;48.538;12.146;2024-03-17T03:07:43;8.50;99.90
4090;DHT22;2059;48.538;12.146;2024-03-17T03:12:44;8.20;99.90
4090;DHT22;2059;48.538;12.146;2024-03-17T03:17:46;8.20;99.90
4090;DHT22;2059;48.538;12.146;2024-03-17T03:22:50;8.00;99.90
4090;DHT22;2059;48.538;12.146;2024-03-17T03:27:51;8.00;99.90
4090;DHT22;2059;48.538;12.146;2024-03-17T03:32:55;8.30;99.90
4090;DHT22;2059;48.538;12.146;2024-03-17T03:37:58;8.20;99.90
4090;DHT22;2059;48.538;12.146;2024-03-17T03:43:00;8.20;99.90
4090;DHT22;2059;48.538;12.146;2024-03-17T03:48:03;7.90;99.90
4090;DHT22;2059;48.538;12.146;2024-03-17T03:53:07;8.00;99.90
4090;DHT22;2059;48.538;12.146;2024-03-17T03:58:09;8.10;99.90
4090;DHT22;2059;48.538;12.146;2024-03-17T04:03:12;8.00;99.90
4090;DHT22;2059;48.538;12.146;2024-03-17T04:08:16;7.90;99.90
4090;DHT22;2059;48.538;12.146;2024-03-17T04:13:18;7.60;99.90
4090;DHT22;2059;48.538;12.146;2024-03-17T04:18:20;7.90;99.90
4090;DHT22;2059;48.538;12.146;2024-03-17T04:23:24;7.90;99.90
4090;DHT22;2059;48.538;12.146;2024-03-17T04:28:26;8.20;99.90
4090;DHT22;2059;48.538;12.146;2024-03-17T04:33:27;8.20;99.90
4090;DHT22;2059;48.538;12.146;2024-03-17T04:38:31;8.30;99.90
4090;DHT22;2059;48.538;12.146;2024-03-17T04:43:32;8.50;99.90
4090;DHT22;2059;48.538;12.146;2024-03-17T04:48:34;8.80;99.90
4090;DHT22;2059;48.538;12.146;2024-03-17T04:53:37;8.50;99.90
4090;DHT22;2059;48.538;12.146;2024-03-17T04:58:39;8.60;99.90
4090;DHT22;2059;48.538;12.146;2024-03-17T05:03:41;8.50;99.90
4090;DHT22;2059;48.538;12.146;2024-03-17T05:08:44;8.50;99.90
4090;DHT22;2059;48.538;12.146;2024-03-17T05:13:46;8.40;99.90
4090;DHT22;2059;48.538;12.146;2024-03-17T05:18:49;8.50;99.90
4090;DHT22;2059;48.538;12.146;2024-03-17T05:23:53;8.50;99.90
4090;DHT22;2059;48.538;12.146;2024-03-17T05:28:55;8.20;99.90
4090;DHT22;2059;48.538;12.146;2024-03-17T05:33:57;8.50;99.90
4090;DHT22;2059;48.538;12.146;2024-03-17T05:39:00;8.60;99.90
4090;DHT22;2059;48.538;12.146;2024-03-17T05:44:02;8.60;99.90
4090;DHT22;2059;48.538;12.146;2024-03-17T05:49:17;8.40;99.90
4090;DHT22;2059;48.538;12.146;2024-03-17T05:54:21;9.00;99.90
4090;DHT22;2059;48.538;12.146;2024-03-17T05:59:23;8.90;99.90
4090;DHT22;2059;48.538;12.146;2024-03-17T06:04:25;9.00;99.90
4090;DHT22;2059;48.538;12.146;2024-03-17T06:09:28;9.00;99.90
4090;DHT22;2059;48.538;12.146;2024-03-17T06:14:30;8.70;99.90
4090;DHT22;2059;48.538;12.146;2024-03-17T06:19:34;8.60;99.90
4090;DHT22;2059;48.538;12.146;2024-03-17T06:24:39;8.90;99.90
4090;DHT22;2059;48.538;12.146;2024-03-17T06:29:44;9.00;99.90
4090;DHT22;2059;48.538;12.146;2024-03-17T06:34:51;9.00;99.90
4090;DHT22;2059;48.538;12.146;2024-03-17T06:39:58;9.40;99.90
4090;DHT22;2059;48.538;12.146;2024-03-17T06:45:02;9.70;99.90
4090;DHT22;2059;48.538;12.146;2024-03-17T06:50:05;9.90;99.90
4090;DHT22;2059;48.538;12.146;2024-03-17T06:55:11;9.80;99.90
4090;DHT22;2059;48.538;12.146;2024-03-17T07:00:14;9.30;99.90
4090;DHT22;2059;48.538;12.146;2024-03-17T07:05:25;9.10;99.90
4090;DHT22;2059;48.538;12.146;2024-03-17T07:10:28;9.40;99.90
4090;DHT22;2059;48.538;12.146;2024-03-17T07:15:30;9.90;99.90
4090;DHT22;2059;48.538;12.146;2024-03-17T07:20:32;10.20;99.90
4090;DHT22;2059;48.538;12.146;2024-03-17T07:25:36;10.50;99.90
4090;DHT22;2059;48.538;12.146;2024-03-17T07:30:37;10.20;99.90
4090;DHT22;2059;48.538;12.146;2024-03-17T07:35:48;10.10;99.90
4090;DHT22;2059;48.538;12.146;2024-03-17T07:40:59;10.60;99.90
4090;DHT22;2059;48.538;12.146;2024-03-17T07:46:03;11.00;99.90
4090;DHT22;2059;48.538;12.146;2024-03-17T07:51:06;11.10;99.90
4090;DHT22;2059;48.538;12.146;2024-03-17T07:56:11;11.10;99.90
4090;DHT22;2059;48.538;12.146;2024-03-17T08:01:15;11.40;99.90
4090;DHT22;2059;48.538;12.146;2024-03-17T08:06:17;11.80;99.90
4090;DHT22;2059;48.538;12.146;2024-03-17T08:11:20;11.70;99.90
4090;DHT22;2059;48.538;12.146;2024-03-17T08:16:22;12.00;99.90
4090;DHT22;2059;48.538;12.146;2024-03-17T08:21:23;12.30;99.90
4090;DHT22;2059;48.538;12.146;2024-03-17T08:26:29;12.30;99.90
4090;DHT22;2059;48.538;12.146;2024-03-17T08:31:30;12.40;99.90
4090;DHT22;2059;48.538;12.146;2024-03-17T08:36:32;12.60;99.90
4090;DHT22;2059;48.538;12.146;2024-03-17T08:41:35;12.90;99.90
4090;DHT22;2059;48.538;12.146;2024-03-17T08:46:37;13.40;99.90
4090;DHT22;2059;48.538;12.146;2024-03-17T08:51:38;13.30;99.70
4090;DHT22;2059;48.538;12.146;2024-03-17T08:56:41;13.50;99.30
4090;DHT22;2059;48.538;12.146;2024-03-17T09:01:43;14.20;98.30
4090;DHT22;2059;48.538;12.146;2024-03-17T09:06:45;14.40;98.60
4090;DHT22;2059;48.538;12.146;2024-03-17T09:11:48;14.70;97.00
4090;DHT22;2059;48.538;12.146;2024-03-17T09:16:51;14.90;95.80
4090;DHT22;2059;48.538;12.146;2024-03-17T09:21:53;14.60;96.20
4090;DHT22;2059;48.538;12.146;2024-03-17T09:26:56;15.10;94.60
4090;DHT22;2059;48.538;12.146;2024-03-17T09:31:58;14.10;96.30
4090;DHT22;2059;48.538;12.146;2024-03-17T09:37:00;14.80;96.30
4090;DHT22;2059;48.538;12.146;2024-03-17T09:42:04;15.50;94.30
4090;DHT22;2059;48.538;12.146;2024-03-17T09:47:07;16.10;94.10
4090;DHT22;2059;48.538;12.146;2024-03-17T09:52:19;16.20;91.70
4090;DHT22;2059;48.538;12.146;2024-03-17T09:57:23;14.50;92.90
4090;DHT22;2059;48.538;12.146;2024-03-17T10:02:25;14.80;93.90
4090;DHT22;2059;48.538;12.146;2024-03-17T10:07:37;14.70;93.80
4090;DHT22;2059;48.538;12.146;2024-03-17T10:12:40;15.10;94.00
4090;DHT22;2059;48.538;12.146;2024-03-17T10:17:42;15.30;93.90
4090;DHT22;2059;48.538;12.146;2024-03-17T10:23:01;16.20;93.50
4090;DHT22;2059;48.538;12.146;2024-03-17T10:28:10;16.00;94.00
4090;DHT22;2059;48.538;12.146;2024-03-17T10:33:22;16.00;93.20
4090;DHT22;2059;48.538;12.146;2024-03-17T10:38:26;15.70;92.70
4090;DHT22;2059;48.538;12.146;2024-03-17T10:43:29;15.40;93.00
4090;DHT22;2059;48.538;12.146;2024-03-17T10:48:31;15.30;94.20
4090;DHT22;2059;48.538;12.146;2024-03-17T10:53:35;15.60;93.00
4090;DHT22;2059;48.538;12.146;2024-03-17T10:58:39;15.40;93.10
4090;DHT22;2059;48.538;12.146;2024-03-17T11:03:47;15.20;93.10
4090;DHT22;2059;48.538;12.146;2024-03-17T11:08:51;15.00;93.70
4090;DHT22;2059;48.538;12.146;2024-03-17T11:14:17;15.10;93.70
4090;DHT22;2059;48.538;12.146;2024-03-17T11:19:20;15.20;93.50
4090;DHT22;2059;48.538;12.146;2024-03-17T11:24:22;15.70;92.50
4090;DHT22;2059;48.538;12.146;2024-03-17T11:29:30;16.30;91.60
4090;DHT22;2059;48.538;12.146;2024-03-17T11:34:35;16.50;92.10
4090;DHT22;2059;48.538;12.146;2024-03-17T11:39:51;17.00;91.50
4090;DHT22;2059;48.538;12.146;2024-03-17T11:45:03;17.50;91.40
4090;DHT22;2059;48.538;12.146;2024-03-17T11:50:08;18.10;89.20
4090;DHT22;2059;48.538;12.146;2024-03-17T11:55:17;18.10;87.70
4090;DHT22;2059;48.538;12.146;2024-03-17T12:00:22;17.80;90.30
4090;DHT22;2059;48.538;12.146;2024-03-17T12:05:25;17.50;86.60
4090;DHT22;2059;48.538;12.146;2024-03-17T12:10:27;16.90;88.50
4090;DHT22;2059;48.538;12.146;2024-03-17T12:15:31;17.40;87.60
4090;DHT22;2059;48.538;12.146;2024-03-17T12:20:33;17.30;88.10
4090;DHT22;2059;48.538;12.146;2024-03-17T12:25:36;17.40;86.40
4090;DHT22;2059;48.538;12.146;2024-03-17T12:30:41;17.80;87.70
4090;DHT22;2059;48.538;12.146;2024-03-17T12:35:44;17.90;84.60
4090;DHT22;2059;48.538;12.146;2024-03-17T12:40:46;17.70;86.20
4090;DHT22;2059;48.538;12.146;2024-03-17T12:45:49;17.10;85.90
4090;DHT22;2059;48.538;12.146;2024-03-17T12:50:51;16.40;89.30
4090;DHT22;2059;48.538;12.146;2024-03-17T12:55:53;16.10;90.00
4090;DHT22;2059;48.538;12.146;2024-03-17T13:01:14;16.60;91.00
4090;DHT22;2059;48.538;12.146;2024-03-17T13:06:23;17.70;88.20
4090;DHT22;2059;48.538;12.146;2024-03-17T13:11:26;18.00;87.70
4090;DHT22;2059;48.538;12.146;2024-03-17T13:16:30;17.90;84.80
4090;DHT22;2059;48.538;12.146;2024-03-17T13:21:32;17.40;85.00
4090;DHT22;2059;48.538;12.146;2024-03-17T13:26:34;17.80;85.90
4090;DHT22;2059;48.538;12.146;2024-03-17T13:31:37;17.80;82.70
4090;DHT22;2059;48.538;12.146;2024-03-17T13:36:39;17.20;85.70
4090;DHT22;2059;48.538;12.146;2024-03-17T13:41:40;16.70;85.80
4090;DHT22;2059;48.538;12.146;2024-03-17T13:46:43;16.80;86.70
4090;DHT22;2059;48.538;12.146;2024-03-17T13:51:45;16.90;87.90
4090;DHT22;2059;48.538;12.146;2024-03-17T13:56:47;17.00;87.40
4090;DHT22;2059;48.538;12.146;2024-03-17T14:01:50;16.70;89.10
4090;DHT22;2059;48.538;12.146;2024-03-17T14:06:52;17.20;87.60
4090;DHT22;2059;48.538;12.146;2024-03-17T14:11:54;17.20;86.70
4090;DHT22;2059;48.538;12.146;2024-03-17T14:16:58;17.10;87.50
4090;DHT22;2059;48.538;12.146;2024-03-17T14:22:00;17.10;87.30
4090;DHT22;2059;48.538;12.146;2024-03-17T14:27:02;17.10;85.50
4090;DHT22;2059;48.538;12.146;2024-03-17T14:32:06;16.70;86.70
4090;DHT22;2059;48.538;12.146;2024-03-17T14:37:08;17.10;87.50
4090;DHT22;2059;48.538;12.146;2024-03-17T14:42:09;17.40;86.80
4090;DHT22;2059;48.538;12.146;2024-03-17T14:47:13;17.60;87.10
4090;DHT22;2059;48.538;12.146;2024-03-17T14:52:15;17.30;88.60
4090;DHT22;2059;48.538;12.146;2024-03-17T14:57:17;17.10;88.30
4090;DHT22;2059;48.538;12.146;2024-03-17T15:02:22;17.20;88.90
4090;DHT22;2059;48.538;12.146;2024-03-17T15:07:24;17.00;90.00
4090;DHT22;2059;48.538;12.146;2024-03-17T15:12:26;16.90;89.80
4090;DHT22;2059;48.538;12.146;2024-03-17T15:17:29;16.90;90.00
4090;DHT22;2059;48.538;12.146;2024-03-17T15:22:31;16.50;90.50
4090;DHT22;2059;48.538;12.146;2024-03-17T15:27:33;16.70;90.20
4090;DHT22;2059;48.538;12.146;2024-03-17T15:32:36;16.50;90.40
4090;DHT22;2059;48.538;12.146;2024-03-17T15:37:38;16.10;90.60
4090;DHT22;2059;48.538;12.146;2024-03-17T15:42:40;15.90;91.40
4090;DHT22;2059;48.538;12.146;2024-03-17T15:47:43;16.00;90.80
4090;DHT22;2059;48.538;12.146;2024-03-17T15:52:45;15.90;91.10
4090;DHT22;2059;48.538;12.146;2024-03-17T15:57:47;15.70;91.20
4090;DHT22;2059;48.538;12.146;2024-03-17T16:02:50;15.70;90.90
4090;DHT22;2059;48.538;12.146;2024-03-17T16:07:53;15.70;90.90
4090;DHT22;2059;48.538;12.146;2024-03-17T16:12:56;15.50;91.30
4090;DHT22;2059;48.538;12.146;2024-03-17T16:18:01;15.60;90.90
4090;DHT22;2059;48.538;12.146;2024-03-17T16:23:03;15.30;91.70
4090;DHT22;2059;48.538;12.146;2024-03-17T16:28:05;15.20;91.70
4090;DHT22;2059;48.538;12.146;2024-03-17T16:33:08;15.00;92.20
4090;DHT22;2059;48.538;12.146;2024-03-17T16:38:11;14.90;92.60
4090;DHT22;2059;48.538;12.146;2024-03-17T16:43:19;14.80;92.50
4090;DHT22;2059;48.538;12.146;2024-03-17T16:48:24;14.90;92.40
4090;DHT22;2059;48.538;12.146;2024-03-17T16:53:26;14.70;92.40
4090;DHT22;2059;48.538;12.146;2024-03-17T16:58:28;14.60;92.50
4090;DHT22;2059;48.538;12.146;2024-03-17T17:03:31;14.50;92.80
4090;DHT22;2059;48.538;12.146;2024-03-17T17:08:35;14.40;93.00
4090;DHT22;2059;48.538;12.146;2024-03-17T17:13:36;14.20;93.80
4090;DHT22;2059;48.538;12.146;2024-03-17T17:18:51;14.20;93.70
4090;DHT22;2059;48.538;12.146;2024-03-17T17:23:53;14.20;93.40
4090;DHT22;2059;48.538;12.146;2024-03-17T17:28:55;14.10;93.80
4090;DHT22;2059;48.538;12.146;2024-03-17T17:34:00;13.90;94.00
4090;DHT22;2059;48.538;12.146;2024-03-17T17:39:02;13.90;94.20
4090;DHT22;2059;48.538;12.146;2024-03-17T17:44:03;13.90;94.70
4090;DHT22;2059;48.538;12.146;2024-03-17T17:49:07;13.70;94.30
4090;DHT22;2059;48.538;12.146;2024-03-17T17:54:09;13.60;94.30
4090;DHT22;2059;48.538;12.146;2024-03-17T17:59:13;13.80;93.90
4090;DHT22;2059;48.538;12.146;2024-03-17T18:04:17;13.70;93.90
4090;DHT22;2059;48.538;12.146;2024-03-17T18:09:18;13.40;94.40
4090;DHT22;2059;48.538;12.146;2024-03-17T18:14:24;13.40;94.40
4090;DHT22;2059;48.538;12.146;2024-03-17T18:19:28;13.40;94.40
4090;DHT22;2059;48.538;12.146;2024-03-17T18:24:30;13.20;94.50
4090;DHT22;2059;48.538;12.146;2024-03-17T18:29:32;13.00;94.70
4090;DHT22;2059;48.538;12.146;2024-03-17T18:34:36;13.10;95.00
4090;DHT22;2059;48.538;12.146;2024-03-17T18:39:38;13.20;94.80
4090;DHT22;2059;48.538;12.146;2024-03-17T18:44:39;13.20;94.90
4090;DHT22;2059;48.538;12.146;2024-03-17T18:49:42;12.90;95.20
4090;DHT22;2059;48.538;12.146;2024-03-17T18:54:49;12.90;95.80
4090;DHT22;2059;48.538;12.146;2024-03-17T18:59:51;12.70;95.90
4090;DHT22;2059;48.538;12.146;2024-03-17T19:04:55;12.60;96.00
4090;DHT22;2059;48.538;12.146;2024-03-17T19:09:57;12.40;96.20
4090;DHT22;2059;48.538;12.146;2024-03-17T19:14:59;12.40;96.20
4090;DHT22;2059;48.538;12.146;2024-03-17T19:20:04;12.30;96.40
4090;DHT22;2059;48.538;12.146;2024-03-17T19:25:09;12.30;96.80
4090;DHT22;2059;48.538;12.146;2024-03-17T19:30:12;12.40;96.50
4090;DHT22;2059;48.538;12.146;2024-03-17T19:35:16;12.30;96.80
4090;DHT22;2059;48.538;12.146;2024-03-17T19:40:18;12.20;97.00
4090;DHT22;2059;48.538;12.146;2024-03-17T19:45:20;12.40;96.60
4090;DHT22;2059;48.538;12.146;2024-03-17T19:50:27;12.20;96.70
4090;DHT22;2059;48.538;12.146;2024-03-17T19:55:29;12.10;97.00
4090;DHT22;2059;48.538;12.146;2024-03-17T20:00:31;12.00;97.00
4090;DHT22;2059;48.538;12.146;2024-03-17T20:05:34;11.90;97.30
4090;DHT22;2059;48.538;12.146;2024-03-17T20:10:37;11.90;97.50
4090;DHT22;2059;48.538;12.146;2024-03-17T20:15:39;11.90;97.40
4090;DHT22;2059;48.538;12.146;2024-03-17T20:20:42;11.90;97.80
4090;DHT22;2059;48.538;12.146;2024-03-17T20:25:44;11.80;97.90
4090;DHT22;2059;48.538;12.146;2024-03-17T20:30:46;11.70;98.00
4090;DHT22;2059;48.538;12.146;2024-03-17T20:35:50;11.80;98.10
4090;DHT22;2059;48.538;12.146;2024-03-17T20:40:52;11.60;98.20
4090;DHT22;2059;48.538;12.146;2024-03-17T20:45:54;11.70;97.90
4090;DHT22;2059;48.538;12.146;2024-03-17T20:50:57;11.60;98.30
4090;DHT22;2059;48.538;12.146;2024-03-17T20:55:59;11.40;98.70
4090;DHT22;2059;48.538;12.146;2024-03-17T21:01:01;11.40;98.70
4090;DHT22;2059;48.538;12.146;2024-03-17T21:06:11;11.30;99.10
4090;DHT22;2059;48.538;12.146;2024-03-17T21:11:13;11.50;98.80
4090;DHT22;2059;48.538;12.146;2024-03-17T21:16:16;11.20;99.10
4090;DHT22;2059;48.538;12.146;2024-03-17T21:21:19;11.20;99.60
4090;DHT22;2059;48.538;12.146;2024-03-17T21:26:21;11.20;99.60
4090;DHT22;2059;48.538;12.146;2024-03-17T21:31:23;11.00;99.90
4090;DHT22;2059;48.538;12.146;2024-03-17T21:36:26;11.20;99.90
4090;DHT22;2059;48.538;12.146;2024-03-17T21:41:28;11.20;99.60
4090;DHT22;2059;48.538;12.146;2024-03-17T21:46:30;11.10;99.90
4090;DHT22;2059;48.538;12.146;2024-03-17T21:51:33;10.90;99.90
4090;DHT22;2059;48.538;12.146;2024-03-17T21:56:35;11.30;99.90
4090;DHT22;2059;48.538;12.146;2024-03-17T22:01:38;11.20;99.90
4090;DHT22;2059;48.538;12.146;2024-03-17T22:06:42;11.00;99.90
4090;DHT22;2059;48.538;12.146;2024-03-17T22:11:44;10.90;99.90
4090;DHT22;2059;48.538;12.146;2024-03-17T22:16:46;10.90;99.90
4090;DHT22;2059;48.538;12.146;2024-03-17T22:21:49;10.80;99.90
4090;DHT22;2059;48.538;12.146;2024-03-17T22:26:51;10.90;99.90
4090;DHT22;2059;48.538;12.146;2024-03-17T22:31:53;11.30;99.90
4090;DHT22;2059;48.538;12.146;2024-03-17T22:36:56;10.90;99.90
4090;DHT22;2059;48.538;12.146;2024-03-17T22:41:58;10.90;99.90
4090;DHT22;2059;48.538;12.146;2024-03-17T22:46:59;11.00;99.90
4090;DHT22;2059;48.538;12.146;2024-03-17T22:52:04;11.10;99.90
4090;DHT22;2059;48.538;12.146;2024-03-17T22:57:06;11.30;99.90
4090;DHT22;2059;48.538;12.146;2024-03-17T23:02:08;11.40;99.90
4090;DHT22;2059;48.538;12.146;2024-03-17T23:07:11;11.10;99.90
4090;DHT22;2059;48.538;12.146;2024-03-17T23:12:13;11.20;99.90
4090;DHT22;2059;48.538;12.146;2024-03-17T23:17:16;11.00;99.90
4090;DHT22;2059;48.538;12.146;2024-03-17T23:22:19;10.90;99.90
4090;DHT22;2059;48.538;12.146;2024-03-17T23:27:21;10.90;99.90
4090;DHT22;2059;48.538;12.146;2024-03-17T23:32:23;11.00;99.90
4090;DHT22;2059;48.538;12.146;2024-03-17T23:37:26;11.10;99.90
4090;DHT22;2059;48.538;12.146;2024-03-17T23:42:28;11.10;99.90
4090;DHT22;2059;48.538;12.146;2024-03-17T23:47:30;11.00;99.90
4090;DHT22;2059;48.538;12.146;2024-03-17T23:52:33;10.90;99.90
4090;DHT22;2059;48.538;12.146;2024-03-17T23:57:35;10.80;99.90
